Time;durP1;ratioP1;P1;durP2;ratioP2;P2;SDS_P1;SDS_P2;PMS_P1;PMS_P2;Temp;Humidity;BMP_temperature;BMP_pressure;BME280_temperature;BME280_humidity;BME280_pressure;Samples;Min_cycle;Max_cycle;Signal;HPM_P1;HPM_P2
2023/04/23 00:01:57;;;;;;;;;;;12.90;89.10;;;;;;6158361;23;20342;-96
2023/04/23 00:04:24;;;;;;;;;;;12.90;89.20;;;;;;6158206;23;19911;-96
2023/04/23 00:06:50;;;;;;;;;;;12.90;89.40;;;;;;6131578;23;19905;-96
2023/04/23 00:09:17;;;;;;;;;;;12.90;89.60;;;;;;6157852;23;20370;-96
2023/04/23 00:11:43;;;;;;;;;;;12.90;89.80;;;;;;6131521;23;19911;-96
2023/04/23 00:14:10;;;;;;;;;;;12.90;89.50;;;;;;6131346;23;19935;-96
2023/04/23 00:16:36;;;;;;;;;;;12.90;89.70;;;;;;6131185;23;19987;-96
2023/04/23 00:19:01;;;;;;;;;;;12.90;89.40;;;;;;6131388;23;19912;-96
2023/04/23 00:21:27;;;;;;;;;;;12.90;89.40;;;;;;6131555;23;19904;-96
2023/04/23 00:23:52;;;;;;;;;;;12.90;89.00;;;;;;6131375;23;19975;-96
2023/04/23 00:26:18;;;;;;;;;;;12.90;88.50;;;;;;6158041;23;19987;-96
2023/04/23 00:28:44;;;;;;;;;;;12.90;87.90;;;;;;6131476;23;19912;-96
2023/04/23 00:31:09;;;;;;;;;;;12.90;88.00;;;;;;6131797;23;19932;-96
2023/04/23 00:33:35;;;;;;;;;;;12.90;88.20;;;;;;6131655;23;19905;-96
2023/04/23 00:36:01;;;;;;;;;;;12.90;87.80;;;;;;6131452;23;19966;-96
2023/04/23 00:38:27;;;;;;;;;;;13.00;88.20;;;;;;6157350;23;19959;-96
2023/04/23 00:40:52;;;;;;;;;;;12.90;88.70;;;;;;6131251;23;19905;-96
2023/04/23 00:43:19;;;;;;;;;;;12.80;89.00;;;;;;6157724;23;19905;-96
2023/04/23 00:45:45;;;;;;;;;;;12.80;89.30;;;;;;6131980;23;19908;-96
2023/04/23 00:48:11;;;;;;;;;;;12.80;89.10;;;;;;6159622;23;19912;-96
2023/04/23 00:50:36;;;;;;;;;;;12.80;89.10;;;;;;6159287;23;19911;-96
2023/04/23 00:53:02;;;;;;;;;;;12.70;88.90;;;;;;6133777;23;19905;-96
2023/04/23 00:55:28;;;;;;;;;;;12.70;88.90;;;;;;6132904;23;19908;-96
2023/04/23 00:57:54;;;;;;;;;;;12.60;89.30;;;;;;6159176;23;19904;-96
2023/04/23 01:00:20;;;;;;;;;;;12.70;89.10;;;;;;6159914;23;19963;-96
2023/04/23 01:02:47;;;;;;;;;;;12.80;88.70;;;;;;6133273;23;20286;-96
2023/04/23 01:05:13;;;;;;;;;;;12.70;88.50;;;;;;6160758;23;19905;-96
2023/04/23 01:07:39;;;;;;;;;;;12.80;88.50;;;;;;6160574;23;19904;-96
2023/04/23 01:10:05;;;;;;;;;;;12.80;88.40;;;;;;6134943;23;19940;-96
2023/04/23 01:12:30;;;;;;;;;;;12.70;88.30;;;;;;6134079;23;19974;-96
2023/04/23 01:14:57;;;;;;;;;;;12.70;88.70;;;;;;6133530;23;20322;-96
2023/04/23 01:17:22;;;;;;;;;;;12.80;88.50;;;;;;6159319;23;19913;-96
2023/04/23 01:19:48;;;;;;;;;;;12.70;88.60;;;;;;6133170;23;19963;-96
2023/04/23 01:22:15;;;;;;;;;;;12.60;89.00;;;;;;6159968;23;19983;-96
2023/04/23 01:24:41;;;;;;;;;;;12.70;88.80;;;;;;6128876;23;19969;-96
2023/04/23 01:27:07;;;;;;;;;;;12.80;88.40;;;;;;6130498;23;20307;-96
2023/04/23 01:29:33;;;;;;;;;;;12.80;88.10;;;;;;6132529;23;19911;-96
2023/04/23 01:31:59;;;;;;;;;;;12.70;87.90;;;;;;6130629;23;20238;-96
2023/04/23 01:34:25;;;;;;;;;;;12.70;87.60;;;;;;6131259;23;20349;-96
2023/04/23 01:36:51;;;;;;;;;;;12.60;87.60;;;;;;6130474;23;19939;-96
2023/04/23 01:39:17;;;;;;;;;;;12.60;87.80;;;;;;6129595;23;19906;-96
2023/04/23 01:41:43;;;;;;;;;;;12.60;88.00;;;;;;6131631;23;19905;-96
2023/04/23 01:44:09;;;;;;;;;;;12.50;87.80;;;;;;6129980;23;19905;-96
2023/04/23 01:46:34;;;;;;;;;;;12.40;88.30;;;;;;6130289;23;19964;-96
2023/04/23 01:49:00;;;;;;;;;;;12.40;88.30;;;;;;6130089;23;19953;-96
2023/04/23 01:51:27;;;;;;;;;;;12.40;88.50;;;;;;6131745;23;20224;-96
2023/04/23 01:53:52;;;;;;;;;;;12.40;88.80;;;;;;6131180;23;19908;-96
2023/04/23 01:56:20;;;;;;;;;;;12.40;89.40;;;;;;6129160;23;19909;-96
2023/04/23 01:58:45;;;;;;;;;;;12.20;89.70;;;;;;6128812;23;19909;-96
2023/04/23 02:01:11;;;;;;;;;;;12.10;90.20;;;;;;6128657;23;19997;-96
2023/04/23 02:03:37;;;;;;;;;;;12.10;90.40;;;;;;6128577;23;20234;-96
2023/04/23 02:06:03;;;;;;;;;;;12.10;90.30;;;;;;6130031;23;19912;-96
2023/04/23 02:08:29;;;;;;;;;;;12.20;90.10;;;;;;6129755;23;19905;-96
2023/04/23 02:10:55;;;;;;;;;;;12.10;90.20;;;;;;6132268;23;19933;-96
2023/04/23 02:13:21;;;;;;;;;;;12.10;90.30;;;;;;6133740;23;19905;-96
2023/04/23 02:15:46;;;;;;;;;;;12.10;90.50;;;;;;6130889;23;20028;-96
2023/04/23 02:18:12;;;;;;;;;;;12.10;91.10;;;;;;6131068;23;20304;-96
2023/04/23 02:20:39;;;;;;;;;;;12.20;90.50;;;;;;6133397;23;19905;-96
2023/04/23 02:23:06;;;;;;;;;;;12.20;89.90;;;;;;6132227;23;20335;-96
2023/04/23 02:25:32;;;;;;;;;;;12.30;89.60;;;;;;6131661;23;19917;-96
2023/04/23 02:28:00;;;;;;;;;;;12.20;89.50;;;;;;6131876;23;19913;-96
2023/04/23 02:30:26;;;;;;;;;;;12.30;89.50;;;;;;6132137;23;19936;-96
2023/04/23 02:32:52;;;;;;;;;;;12.20;89.80;;;;;;6133871;23;19912;-96
2023/04/23 02:35:17;;;;;;;;;;;12.20;89.60;;;;;;6133820;23;19909;-96
2023/04/23 02:37:43;;;;;;;;;;;12.10;89.90;;;;;;6131907;23;20231;-96
2023/04/23 02:40:09;;;;;;;;;;;12.20;90.20;;;;;;6131600;23;20007;-96
2023/04/23 02:42:34;;;;;;;;;;;12.20;89.70;;;;;;6131235;23;19983;-96
2023/04/23 02:45:00;;;;;;;;;;;12.20;89.60;;;;;;6132927;23;20284;-96
2023/04/23 02:47:26;;;;;;;;;;;12.30;90.00;;;;;;6131516;23;20242;-96
2023/04/23 02:49:52;;;;;;;;;;;12.40;89.30;;;;;;6131592;23;19905;-96
2023/04/23 02:52:18;;;;;;;;;;;12.40;89.00;;;;;;6132334;23;19905;-96
2023/04/23 02:54:43;;;;;;;;;;;12.30;88.80;;;;;;6132072;23;20025;-96
2023/04/23 02:57:09;;;;;;;;;;;12.20;89.10;;;;;;6133088;23;19909;-96
2023/04/23 02:59:35;;;;;;;;;;;12.30;88.90;;;;;;6133463;23;19925;-96
2023/04/23 03:02:00;;;;;;;;;;;12.40;88.90;;;;;;6135395;23;19905;-96
2023/04/23 03:04:26;;;;;;;;;;;12.30;88.90;;;;;;6132661;23;19912;-96
2023/04/23 03:06:52;;;;;;;;;;;12.30;89.00;;;;;;6133904;23;19912;-96
2023/04/23 03:09:18;;;;;;;;;;;12.30;88.70;;;;;;6131802;23;19938;-96
2023/04/23 03:11:43;;;;;;;;;;;12.30;89.00;;;;;;6131650;23;20247;-96
2023/04/23 03:14:09;;;;;;;;;;;12.30;88.70;;;;;;6132332;23;19984;-96
2023/04/23 03:16:35;;;;;;;;;;;12.30;88.80;;;;;;6132173;23;20263;-96
2023/04/23 03:19:00;;;;;;;;;;;12.20;88.80;;;;;;6130867;23;19911;-96
2023/04/23 03:21:26;;;;;;;;;;;12.10;89.00;;;;;;6129414;23;19976;-96
2023/04/23 03:23:52;;;;;;;;;;;12.00;88.90;;;;;;6129852;23;20234;-96
2023/04/23 03:26:17;;;;;;;;;;;11.90;88.90;;;;;;6135137;23;19916;-96
2023/04/23 03:28:43;;;;;;;;;;;11.90;88.90;;;;;;6161425;23;20196;-96
2023/04/23 03:31:09;;;;;;;;;;;11.90;89.10;;;;;;6137588;23;19999;-96
2023/04/23 03:33:34;;;;;;;;;;;11.80;89.70;;;;;;6161947;23;19908;-96
2023/04/23 03:36:00;;;;;;;;;;;11.70;90.20;;;;;;6161200;23;19916;-96
2023/04/23 03:38:26;;;;;;;;;;;11.70;90.30;;;;;;6161913;23;19962;-96
2023/04/23 03:40:51;;;;;;;;;;;11.70;90.40;;;;;;6161528;23;19908;-96
2023/04/23 03:43:17;;;;;;;;;;;11.70;90.20;;;;;;6135015;23;19905;-96
2023/04/23 03:45:43;;;;;;;;;;;11.60;90.10;;;;;;6134787;23;19955;-96
2023/04/23 03:48:09;;;;;;;;;;;11.50;90.20;;;;;;6134269;23;19905;-96
2023/04/23 03:50:39;;;;;;;;;;;11.50;90.40;;;;;;6162104;23;19916;-96
2023/04/23 03:53:05;;;;;;;;;;;11.50;90.70;;;;;;6161128;23;19905;-96
2023/04/23 03:55:30;;;;;;;;;;;11.50;91.00;;;;;;6134132;23;20330;-96
2023/04/23 03:57:58;;;;;;;;;;;11.50;91.10;;;;;;6133988;23;19911;-96
2023/04/23 04:00:24;;;;;;;;;;;11.40;91.10;;;;;;6134213;23;19908;-96
2023/04/23 04:02:49;;;;;;;;;;;11.50;91.20;;;;;;6160738;23;20338;-96
2023/04/23 04:05:15;;;;;;;;;;;11.70;90.90;;;;;;6160158;23;19909;-96
2023/04/23 04:07:41;;;;;;;;;;;11.70;90.80;;;;;;6134478;23;19987;-96
2023/04/23 04:10:07;;;;;;;;;;;11.80;90.70;;;;;;6134144;23;19924;-96
2023/04/23 04:12:32;;;;;;;;;;;11.90;90.30;;;;;;6160421;23;19905;-96
2023/04/23 04:14:58;;;;;;;;;;;11.90;90.10;;;;;;6134227;23;20235;-96
2023/04/23 04:17:24;;;;;;;;;;;12.00;90.00;;;;;;6135421;23;19912;-96
2023/04/23 04:19:50;;;;;;;;;;;12.00;89.80;;;;;;6136056;23;19916;-95
2023/04/23 04:22:16;;;;;;;;;;;12.00;89.70;;;;;;6135951;23;19989;-96
2023/04/23 04:24:42;;;;;;;;;;;12.00;89.50;;;;;;6135117;23;19921;-96
2023/04/23 04:27:10;;;;;;;;;;;12.00;89.60;;;;;;6131305;23;19909;-96
2023/04/23 04:29:36;;;;;;;;;;;12.00;89.90;;;;;;6131864;23;19909;-96
2023/04/23 04:32:01;;;;;;;;;;;11.90;89.70;;;;;;6130351;23;20342;-96
2023/04/23 04:34:27;;;;;;;;;;;11.80;89.80;;;;;;6131123;23;19905;-96
2023/04/23 04:36:53;;;;;;;;;;;11.80;90.00;;;;;;6128169;23;19913;-96
2023/04/23 04:39:19;;;;;;;;;;;11.80;90.60;;;;;;6127927;23;19980;-96
2023/04/23 04:41:45;;;;;;;;;;;11.80;91.00;;;;;;6129370;23;19960;-96
2023/04/23 04:44:13;;;;;;;;;;;11.90;90.70;;;;;;6129253;23;19905;-95
2023/04/23 04:46:39;;;;;;;;;;;12.00;90.50;;;;;;6129781;23;19980;-96
2023/04/23 04:49:08;;;;;;;;;;;12.00;90.50;;;;;;6128555;23;19905;-96
2023/04/23 04:51:35;;;;;;;;;;;11.90;90.40;;;;;;6128811;23;19905;-96
2023/04/23 04:54:01;;;;;;;;;;;11.90;90.40;;;;;;6128807;23;19912;-96
2023/04/23 04:56:27;;;;;;;;;;;11.90;90.40;;;;;;6128665;23;19909;-96
2023/04/23 04:58:52;;;;;;;;;;;11.90;90.70;;;;;;6128838;23;19904;-96
2023/04/23 05:01:19;;;;;;;;;;;12.00;91.10;;;;;;6128973;23;20242;-96
2023/04/23 05:03:45;;;;;;;;;;;12.10;90.80;;;;;;6129112;23;19912;-96
2023/04/23 05:06:10;;;;;;;;;;;12.20;90.60;;;;;;6131374;23;19928;-96
2023/04/23 05:08:36;;;;;;;;;;;12.20;90.20;;;;;;6128823;23;19905;-96
2023/04/23 05:11:02;;;;;;;;;;;12.30;89.80;;;;;;6128238;23;19929;-96
2023/04/23 05:13:28;;;;;;;;;;;12.30;89.70;;;;;;6128902;23;19927;-96
2023/04/23 05:15:54;;;;;;;;;;;12.40;90.00;;;;;;6128416;23;20382;-96
2023/04/23 05:18:20;;;;;;;;;;;12.40;90.00;;;;;;6128761;23;19997;-96
2023/04/23 05:20:45;;;;;;;;;;;12.40;89.90;;;;;;6129003;23;19909;-96
2023/04/23 05:23:11;;;;;;;;;;;12.40;89.80;;;;;;6128038;23;20295;-96
2023/04/23 05:25:36;;;;;;;;;;;12.40;89.80;;;;;;6128028;23;19992;-96
2023/04/23 05:28:03;;;;;;;;;;;12.40;90.00;;;;;;6130146;23;19968;-96
2023/04/23 05:30:29;;;;;;;;;;;12.40;90.60;;;;;;6129816;23;19905;-96
2023/04/23 05:32:54;;;;;;;;;;;12.40;91.00;;;;;;6128393;23;19912;-96
2023/04/23 05:35:20;;;;;;;;;;;12.50;91.30;;;;;;6128110;23;20227;-96
2023/04/23 05:37:46;;;;;;;;;;;12.70;91.10;;;;;;6127484;23;19987;-96
2023/04/23 05:40:12;;;;;;;;;;;12.90;91.00;;;;;;6129474;23;20290;-96
2023/04/23 05:42:38;;;;;;;;;;;12.90;90.70;;;;;;6129037;23;19905;-96
2023/04/23 05:45:03;;;;;;;;;;;13.00;90.50;;;;;;6130882;23;19987;-96
2023/04/23 05:47:29;;;;;;;;;;;13.10;90.20;;;;;;6131248;23;19912;-96
2023/04/23 05:49:58;;;;;;;;;;;13.10;89.90;;;;;;6130465;23;20021;-96
2023/04/23 05:52:24;;;;;;;;;;;13.20;89.90;;;;;;6131849;23;20331;-96
2023/04/23 05:54:50;;;;;;;;;;;13.30;89.70;;;;;;6132715;23;19928;-96
2023/04/23 05:57:16;;;;;;;;;;;13.30;89.60;;;;;;6133034;23;19929;-96
2023/04/23 05:59:42;;;;;;;;;;;13.30;89.50;;;;;;6133882;23;19912;-96
2023/04/23 06:02:09;;;;;;;;;;;13.40;89.30;;;;;;6133758;23;19956;-96
2023/04/23 06:04:35;;;;;;;;;;;13.40;89.10;;;;;;6131400;23;19944;-96
2023/04/23 06:07:01;;;;;;;;;;;13.40;88.80;;;;;;6132915;23;20334;-96
2023/04/23 06:09:27;;;;;;;;;;;13.50;88.40;;;;;;6132237;23;19929;-96
2023/04/23 06:11:53;;;;;;;;;;;13.50;88.10;;;;;;6130278;23;19912;-96
2023/04/23 06:14:18;;;;;;;;;;;13.60;88.10;;;;;;6130949;23;20291;-96
2023/04/23 06:16:44;;;;;;;;;;;13.60;87.90;;;;;;6131061;23;19909;-96
2023/04/23 06:19:10;;;;;;;;;;;13.70;88.00;;;;;;6131340;23;19905;-96
2023/04/23 06:21:36;;;;;;;;;;;13.70;87.90;;;;;;6131183;23;19909;-96
2023/04/23 06:24:01;;;;;;;;;;;13.70;87.70;;;;;;6133288;23;19928;-95
2023/04/23 06:26:27;;;;;;;;;;;13.80;87.70;;;;;;6159975;23;20239;-96
2023/04/23 06:28:53;;;;;;;;;;;13.80;87.80;;;;;;6160581;23;20246;-96
2023/04/23 06:31:18;;;;;;;;;;;13.90;87.70;;;;;;6160957;23;19927;-96
2023/04/23 06:33:44;;;;;;;;;;;13.90;87.60;;;;;;6160668;23;19905;-96
2023/04/23 06:36:10;;;;;;;;;;;14.00;87.60;;;;;;6133844;23;19916;-95
2023/04/23 06:38:36;;;;;;;;;;;14.10;87.50;;;;;;6134487;23;19909;-96
2023/04/23 06:41:02;;;;;;;;;;;14.20;87.10;;;;;;6136092;23;19988;-96
2023/04/23 06:43:27;;;;;;;;;;;14.30;87.10;;;;;;6135578;23;19905;-96
2023/04/23 06:45:53;;;;;;;;;;;14.40;86.80;;;;;;6162720;23;19904;-96
2023/04/23 06:48:20;;;;;;;;;;;14.60;86.40;;;;;;6136633;23;20007;-96
2023/04/23 06:50:47;;;;;;;;;;;14.70;86.20;;;;;;6162813;23;19908;-96
2023/04/23 06:53:13;;;;;;;;;;;14.70;85.50;;;;;;6137346;23;20381;-96
2023/04/23 06:55:39;;;;;;;;;;;14.80;85.20;;;;;;6162998;23;19909;-96
2023/04/23 06:58:06;;;;;;;;;;;14.90;85.00;;;;;;6161990;23;19928;-96
2023/04/23 07:00:32;;;;;;;;;;;14.90;85.00;;;;;;6161476;23;20289;-96
2023/04/23 07:02:57;;;;;;;;;;;14.90;83.80;;;;;;6134512;23;19911;-96
2023/04/23 07:05:23;;;;;;;;;;;14.90;83.60;;;;;;6137503;23;19904;-96
2023/04/23 07:07:49;;;;;;;;;;;15.00;83.70;;;;;;6163273;23;19904;-96
2023/04/23 07:10:15;;;;;;;;;;;15.20;83.50;;;;;;6164901;23;20238;-96
2023/04/23 07:12:40;;;;;;;;;;;15.20;83.20;;;;;;6162155;23;19971;-96
2023/04/23 07:15:07;;;;;;;;;;;15.40;83.30;;;;;;6162803;23;20326;-96
2023/04/23 07:17:33;;;;;;;;;;;15.50;83.30;;;;;;6137762;23;20380;-96
2023/04/23 07:19:59;;;;;;;;;;;15.60;83.20;;;;;;6137017;23;19905;-96
2023/04/23 07:22:25;;;;;;;;;;;15.70;82.80;;;;;;6161726;23;20238;-96
2023/04/23 07:24:51;;;;;;;;;;;15.80;82.50;;;;;;6163335;23;19955;-96
2023/04/23 07:27:17;;;;;;;;;;;16.00;80.80;;;;;;6135441;23;19934;-96
2023/04/23 07:29:43;;;;;;;;;;;16.10;81.20;;;;;;6160818;23;19905;-96
2023/04/23 07:32:08;;;;;;;;;;;16.30;80.70;;;;;;6161327;23;20242;-96
2023/04/23 07:34:37;;;;;;;;;;;16.40;80.40;;;;;;6161527;23;19933;-96
2023/04/23 07:37:02;;;;;;;;;;;16.50;79.70;;;;;;6142221;23;19939;-96
2023/04/23 07:39:28;;;;;;;;;;;16.50;80.20;;;;;;6168703;23;20022;-96
2023/04/23 07:41:55;;;;;;;;;;;16.60;79.80;;;;;;6165575;23;19905;-96
2023/04/23 07:44:21;;;;;;;;;;;16.70;78.90;;;;;;6165565;23;19911;-96
2023/04/23 07:46:47;;;;;;;;;;;16.80;79.10;;;;;;6138585;23;19987;-96
2023/04/23 07:49:13;;;;;;;;;;;16.90;79.10;;;;;;6138172;23;19911;-96
2023/04/23 07:51:38;;;;;;;;;;;16.90;78.10;;;;;;6138998;23;20242;-96
2023/04/23 07:54:04;;;;;;;;;;;17.00;77.30;;;;;;6167284;23;19904;-96
2023/04/23 07:56:31;;;;;;;;;;;17.10;77.50;;;;;;6142931;23;19909;-96
2023/04/23 07:59:00;;;;;;;;;;;17.10;77.70;;;;;;6167324;23;19926;-96
2023/04/23 08:01:26;;;;;;;;;;;17.30;77.00;;;;;;6167822;23;19909;-96
2023/04/23 08:03:54;;;;;;;;;;;17.30;76.90;;;;;;6168943;23;19973;-96
2023/04/23 08:06:20;;;;;;;;;;;17.30;76.20;;;;;;6141789;23;19984;-96
2023/04/23 08:08:46;;;;;;;;;;;17.30;76.20;;;;;;6166172;23;19913;-96
2023/04/23 08:11:12;;;;;;;;;;;17.40;76.70;;;;;;6165264;23;19904;-96
2023/04/23 08:13:38;;;;;;;;;;;17.30;76.30;;;;;;6140110;23;19904;-96
2023/04/23 08:16:03;;;;;;;;;;;17.40;76.90;;;;;;6140001;23;19916;-96
2023/04/23 08:18:29;;;;;;;;;;;17.50;76.70;;;;;;6164002;23;19904;-96
2023/04/23 08:20:58;;;;;;;;;;;17.60;76.50;;;;;;6140092;23;19929;-96
2023/04/23 08:23:24;;;;;;;;;;;17.70;76.90;;;;;;6164662;23;19905;-95
2023/04/23 08:25:50;;;;;;;;;;;17.70;75.90;;;;;;6138955;23;19924;-96
2023/04/23 08:28:16;;;;;;;;;;;17.60;75.90;;;;;;6138942;23;19904;-96
2023/04/23 08:30:42;;;;;;;;;;;17.70;76.20;;;;;;6165753;23;19905;-96
2023/04/23 08:33:08;;;;;;;;;;;17.80;74.60;;;;;;6141028;23;19904;-96
2023/04/23 08:35:34;;;;;;;;;;;17.80;72.90;;;;;;6166866;23;19908;-96
2023/04/23 08:38:00;;;;;;;;;;;17.80;74.20;;;;;;6166551;23;19952;-96
2023/04/23 08:40:28;;;;;;;;;;;17.80;73.70;;;;;;6138040;23;19909;-96
2023/04/23 08:43:00;;;;;;;;;;;17.80;73.40;;;;;;6138887;23;19904;-96
2023/04/23 08:45:26;;;;;;;;;;;17.80;75.30;;;;;;6139583;23;19979;-96
2023/04/23 08:47:52;;;;;;;;;;;18.00;75.60;;;;;;6165420;23;19955;-96
2023/04/23 08:50:18;;;;;;;;;;;18.20;75.20;;;;;;6165538;23;19911;-96
2023/04/23 08:52:54;;;;;;;;;;;18.30;72.00;;;;;;6140300;23;19912;-96
2023/04/23 08:55:20;;;;;;;;;;;18.30;70.90;;;;;;6166278;23;19909;-96
2023/04/23 08:57:47;;;;;;;;;;;18.30;73.00;;;;;;6139134;23;19941;-96
2023/04/23 09:00:14;;;;;;;;;;;18.30;73.20;;;;;;6138950;23;19904;-96
2023/04/23 09:02:40;;;;;;;;;;;18.30;72.90;;;;;;6166002;23;19912;-96
2023/04/23 09:05:07;;;;;;;;;;;18.30;73.20;;;;;;6139216;23;20078;-96
2023/04/23 09:07:33;;;;;;;;;;;18.30;73.30;;;;;;6139575;23;19911;-96
2023/04/23 09:09:59;;;;;;;;;;;18.30;72.90;;;;;;6139298;23;19911;-96
2023/04/23 09:12:25;;;;;;;;;;;18.30;73.60;;;;;;6139800;23;19905;-96
2023/04/23 09:14:51;;;;;;;;;;;18.30;73.40;;;;;;6166233;23;19949;-96
2023/04/23 09:17:18;;;;;;;;;;;18.40;72.20;;;;;;6164393;23;20282;-96
2023/04/23 09:19:46;;;;;;;;;;;18.40;72.40;;;;;;6143767;23;19905;-96
2023/04/23 09:22:11;;;;;;;;;;;18.50;73.00;;;;;;6143966;23;19952;-96
2023/04/23 09:24:43;;;;;;;;;;;18.50;72.20;;;;;;6168553;23;19917;-96
2023/04/23 09:27:08;;;;;;;;;;;18.60;72.80;;;;;;6141647;23;19940;-96
2023/04/23 09:29:34;;;;;;;;;;;18.60;73.30;;;;;;6140247;23;19904;-96
2023/04/23 09:32:07;;;;;;;;;;;18.60;72.30;;;;;;6166859;23;19905;-96
2023/04/23 09:34:34;;;;;;;;;;;18.60;73.30;;;;;;6165874;23;19904;-96
2023/04/23 09:37:00;;;;;;;;;;;18.70;71.50;;;;;;6165287;23;20326;-96
2023/04/23 09:39:25;;;;;;;;;;;18.70;72.40;;;;;;6138895;23;19911;-96
2023/04/23 09:41:52;;;;;;;;;;;18.80;73.70;;;;;;6163446;23;19911;-96
2023/04/23 09:44:21;;;;;;;;;;;18.90;72.10;;;;;;6138964;23;19951;-96
2023/04/23 09:46:46;;;;;;;;;;;18.90;71.80;;;;;;6138970;23;19908;-96
2023/04/23 09:49:13;;;;;;;;;;;19.00;69.90;;;;;;6162953;23;19905;-96
2023/04/23 09:51:40;;;;;;;;;;;19.10;69.50;;;;;;6138102;23;19928;-96
2023/04/23 09:54:20;;;;;;;;;;;19.20;71.90;;;;;;6164830;23;19912;-96
2023/04/23 09:56:50;;;;;;;;;;;19.30;68.50;;;;;;6138464;23;19919;-96
2023/04/23 09:59:19;;;;;;;;;;;19.30;68.10;;;;;;6139382;23;20355;-96
2023/04/23 10:01:45;;;;;;;;;;;19.40;65.80;;;;;;6164610;23;19956;-96
2023/04/23 10:04:12;;;;;;;;;;;19.40;67.40;;;;;;6164244;23;19905;-96
2023/04/23 10:06:37;;;;;;;;;;;19.40;70.10;;;;;;6138294;23;19905;-96
2023/04/23 10:09:03;;;;;;;;;;;19.50;70.40;;;;;;6138244;23;19964;-96
2023/04/23 10:11:29;;;;;;;;;;;19.60;68.70;;;;;;6161819;23;20289;-96
2023/04/23 10:13:55;;;;;;;;;;;19.70;69.40;;;;;;6164186;23;19909;-96
2023/04/23 10:16:21;;;;;;;;;;;19.80;68.90;;;;;;6163278;23;19940;-96
2023/04/23 10:18:47;;;;;;;;;;;20.00;68.50;;;;;;6138342;23;19908;-96
2023/04/23 10:21:13;;;;;;;;;;;20.10;66.40;;;;;;6138666;23;19950;-96
2023/04/23 10:23:41;;;;;;;;;;;20.30;65.30;;;;;;6137364;23;19911;-96
2023/04/23 10:26:08;;;;;;;;;;;20.30;62.30;;;;;;6138461;23;19921;-96
2023/04/23 10:28:34;;;;;;;;;;;20.40;64.30;;;;;;6137378;23;19904;-96
2023/04/23 10:31:01;;;;;;;;;;;20.60;65.10;;;;;;6135888;23;19905;-96
2023/04/23 10:33:27;;;;;;;;;;;20.70;64.80;;;;;;6135939;23;19909;-96
2023/04/23 10:35:53;;;;;;;;;;;20.80;62.70;;;;;;6135100;23;19908;-96
2023/04/23 10:38:20;;;;;;;;;;;20.90;62.20;;;;;;6135879;23;20241;-96
2023/04/23 10:40:48;;;;;;;;;;;21.00;61.60;;;;;;6136730;23;19905;-96
2023/04/23 10:43:16;;;;;;;;;;;21.10;61.40;;;;;;6137073;23;19909;-96
2023/04/23 10:45:42;;;;;;;;;;;21.20;59.90;;;;;;6135041;23;19991;-96
2023/04/23 10:48:08;;;;;;;;;;;21.10;61.70;;;;;;6135302;23;19955;-96
2023/04/23 10:50:35;;;;;;;;;;;21.20;61.50;;;;;;6159765;23;19921;-96
2023/04/23 10:53:01;;;;;;;;;;;21.30;62.80;;;;;;6135940;23;19944;-96
2023/04/23 10:55:27;;;;;;;;;;;21.30;56.80;;;;;;6162202;23;19919;-96
2023/04/23 10:58:00;;;;;;;;;;;21.30;55.90;;;;;;6161765;23;19912;-96
2023/04/23 11:00:26;;;;;;;;;;;21.40;56.60;;;;;;6135799;23;19911;-96
2023/04/23 11:02:52;;;;;;;;;;;21.50;58.20;;;;;;6160892;23;20007;-96
2023/04/23 11:05:18;;;;;;;;;;;21.70;57.90;;;;;;6133819;23;20242;-96
2023/04/23 11:08:04;;;;;;;;;;;21.80;53.50;;;;;;6158646;23;19983;-96
2023/04/23 11:10:30;;;;;;;;;;;21.80;54.70;;;;;;6133054;23;19904;-96
2023/04/23 11:12:56;;;;;;;;;;;21.90;56.90;;;;;;6132433;23;20315;-96
2023/04/23 11:15:22;;;;;;;;;;;22.10;50.60;;;;;;6159712;23;19961;-96
2023/04/23 11:17:51;;;;;;;;;;;22.10;51.30;;;;;;6133411;23;19936;-96
2023/04/23 11:20:20;;;;;;;;;;;22.10;50.20;;;;;;6132394;23;19909;-96
2023/04/23 11:22:47;;;;;;;;;;;21.90;48.70;;;;;;6158978;23;19916;-96
2023/04/23 11:25:22;;;;;;;;;;;21.90;49.70;;;;;;6132578;23;19939;-96
2023/04/23 11:27:49;;;;;;;;;;;21.90;48.30;;;;;;6159093;23;19904;-96
2023/04/23 11:30:19;;;;;;;;;;;21.90;51.50;;;;;;6158954;23;19994;-96
2023/04/23 11:32:47;;;;;;;;;;;22.10;51.10;;;;;;6134149;23;19912;-96
2023/04/23 11:35:14;;;;;;;;;;;22.30;50.30;;;;;;6136087;23;20329;-96
2023/04/23 11:37:40;;;;;;;;;;;22.50;51.10;;;;;;6133891;23;19975;-96
2023/04/23 11:40:08;;;;;;;;;;;22.70;50.70;;;;;;6134786;23;19905;-96
2023/04/23 11:42:50;;;;;;;;;;;22.90;49.50;;;;;;6161598;23;19944;-96
2023/04/23 11:45:26;;;;;;;;;;;22.90;45.60;;;;;;6162048;23;19983;-96
2023/04/23 11:47:54;;;;;;;;;;;23.10;45.40;;;;;;6135426;23;19905;-96
2023/04/23 11:50:21;;;;;;;;;;;23.10;46.40;;;;;;6133739;23;20385;-96
2023/04/23 11:52:47;;;;;;;;;;;23.20;47.70;;;;;;6160756;23;19916;-96
2023/04/23 11:55:12;;;;;;;;;;;23.30;46.50;;;;;;6134289;23;19904;-96
2023/04/23 11:57:42;;;;;;;;;;;23.60;44.40;;;;;;6134514;23;19905;-96
2023/04/23 12:00:15;;;;;;;;;;;24.00;46.00;;;;;;6133461;23;19912;-96
2023/04/23 12:02:50;;;;;;;;;;;24.30;43.90;;;;;;6133626;23;19911;-96
2023/04/23 12:05:26;;;;;;;;;;;24.70;43.00;;;;;;6160604;23;19987;-96
2023/04/23 12:07:52;;;;;;;;;;;25.00;44.00;;;;;;6160545;23;19936;-96
2023/04/23 12:10:19;;;;;;;;;;;25.30;42.10;;;;;;6161129;23;20231;-96
2023/04/23 12:12:48;;;;;;;;;;;25.50;39.00;;;;;;6133880;23;19936;-96
2023/04/23 12:15:13;;;;;;;;;;;25.60;38.90;;;;;;6160786;23;19904;-96
2023/04/23 12:17:39;;;;;;;;;;;25.30;39.50;;;;;;6132532;23;19905;-96
2023/04/23 12:20:08;;;;;;;;;;;25.10;41.30;;;;;;6132671;23;19904;-96
2023/04/23 12:22:34;;;;;;;;;;;25.30;40.40;;;;;;6158738;23;19909;-96
2023/04/23 12:25:06;;;;;;;;;;;25.70;39.80;;;;;;6157611;23;19944;-96
2023/04/23 12:27:32;;;;;;;;;;;25.90;39.10;;;;;;6158353;23;19932;-96
2023/04/23 12:29:59;;;;;;;;;;;26.20;40.50;;;;;;6132573;23;19905;-96
2023/04/23 12:32:25;;;;;;;;;;;26.50;39.40;;;;;;6129928;23;19940;-96
2023/04/23 12:34:52;;;;;;;;;;;26.70;38.60;;;;;;6130132;23;19905;-96
2023/04/23 12:37:17;;;;;;;;;;;27.10;36.70;;;;;;6130977;23;19960;-96
2023/04/23 12:39:43;;;;;;;;;;;27.50;38.50;;;;;;6132717;23;19983;-96
2023/04/23 12:42:09;;;;;;;;;;;27.80;36.00;;;;;;6132594;23;19909;-96
2023/04/23 12:44:35;;;;;;;;;;;28.20;34.60;;;;;;6133670;23;19912;-96
2023/04/23 12:47:03;;;;;;;;;;;28.60;35.40;;;;;;6137865;23;19912;-97
2023/04/23 12:49:32;;;;;;;;;;;28.80;34.30;;;;;;6139949;23;19916;-97
2023/04/23 12:52:01;;;;;;;;;;;28.80;33.90;;;;;;6141154;23;19912;-96
2023/04/23 12:54:28;;;;;;;;;;;28.80;34.50;;;;;;6140900;23;19909;-96
2023/04/23 12:56:54;;;;;;;;;;;28.90;34.40;;;;;;6142050;23;19916;-96
2023/04/23 12:59:20;;;;;;;;;;;29.10;34.10;;;;;;6141069;23;19912;-96
2023/04/23 13:01:46;;;;;;;;;;;29.20;32.60;;;;;;6139505;23;19915;-96
2023/04/23 13:04:12;;;;;;;;;;;29.20;33.90;;;;;;6143345;23;19905;-96
2023/04/23 13:06:38;;;;;;;;;;;29.20;33.70;;;;;;6141721;23;19912;-96
2023/04/23 13:09:04;;;;;;;;;;;29.30;34.60;;;;;;6142422;23;19905;-96
2023/04/23 13:11:31;;;;;;;;;;;29.50;32.40;;;;;;6141455;23;19912;-96
2023/04/23 13:13:57;;;;;;;;;;;29.50;30.80;;;;;;6142059;23;19905;-96
2023/04/23 13:16:23;;;;;;;;;;;29.30;34.00;;;;;;6141198;23;20231;-96
2023/04/23 13:18:50;;;;;;;;;;;29.10;33.30;;;;;;6138024;23;19932;-96
2023/04/23 13:21:16;;;;;;;;;;;29.20;32.10;;;;;;6138673;23;19905;-96
2023/04/23 13:23:42;;;;;;;;;;;29.60;32.90;;;;;;6140649;23;19931;-96
2023/04/23 13:26:08;;;;;;;;;;;29.90;31.90;;;;;;6166838;23;19948;-96
2023/04/23 13:28:36;;;;;;;;;;;29.90;31.60;;;;;;6168882;23;19953;-96
2023/04/23 13:31:02;;;;;;;;;;;29.60;30.90;;;;;;6142977;23;19912;-96
2023/04/23 13:33:29;;;;;;;;;;;29.10;31.90;;;;;;6140321;23;20346;-96
2023/04/23 13:35:55;;;;;;;;;;;28.90;33.10;;;;;;6164955;23;19991;-96
2023/04/23 13:38:27;;;;;;;;;;;29.00;34.10;;;;;;6164450;23;19905;-96
2023/04/23 13:40:53;;;;;;;;;;;29.00;34.40;;;;;;6135050;23;19912;-96
2023/04/23 13:43:18;;;;;;;;;;;28.80;35.00;;;;;;6135463;23;19905;-96
2023/04/23 13:45:47;;;;;;;;;;;28.70;34.80;;;;;;6161835;23;19905;-96
2023/04/23 13:48:13;;;;;;;;;;;28.70;33.80;;;;;;6135419;23;20030;-96
2023/04/23 13:50:39;;;;;;;;;;;28.60;35.00;;;;;;6136287;23;19912;-96
2023/04/23 13:53:05;;;;;;;;;;;28.80;33.70;;;;;;6162253;23;19905;-96
2023/04/23 13:55:30;;;;;;;;;;;29.00;35.00;;;;;;6161986;23;19909;-96
2023/04/23 13:57:57;;;;;;;;;;;29.00;33.60;;;;;;6160809;23;19963;-96
2023/04/23 14:00:24;;;;;;;;;;;28.70;34.00;;;;;;6157219;23;19992;-96
2023/04/23 14:02:50;;;;;;;;;;;28.20;35.30;;;;;;6160475;23;19912;-96
2023/04/23 14:05:15;;;;;;;;;;;28.70;36.40;;;;;;6135869;23;19904;-96
2023/04/23 14:07:41;;;;;;;;;;;29.10;36.00;;;;;;6134109;23;19911;-96
2023/04/23 14:10:06;;;;;;;;;;;29.90;34.00;;;;;;6160162;23;19979;-96
2023/04/23 14:12:32;;;;;;;;;;;30.20;34.90;;;;;;6133921;23;19904;-96